| time (UTC) | temp F | wind direction | speed knots | gust knots | rain 1hr in | rain 24hr in | rain mn in | humidity % | barometer mb |
| 20260503185144 | 71 | 7 | 3.5 | 3.5 | 0.00 | 0.00 | 0.00 | 37 | 1016.9 |
| 20260503184639 | 70 | 28 | 0.9 | 2.6 | 0.00 | 0.00 | 0.00 | 40 | 1017.0 |
| 20260503184136 | 70 | 43 | 2.6 | 2.6 | 0.00 | 0.00 | 0.00 | 40 | 1017.2 |
| 20260503183632 | 69 | 268 | 0.0 | 4.3 | 0.00 | 0.00 | 0.00 | 37 | 1017.0 |
| 20260503183130 | 70 | 32 | 2.6 | 3.5 | 0.00 | 0.00 | 0.00 | 40 | 1017.1 |
| 20260503182628 | 69 | 111 | 1.7 | 2.6 | 0.00 | 0.00 | 0.00 | 37 | 1017.3 |
| 20260503182126 | 69 | 72 | 2.6 | 5.2 | 0.00 | 0.00 | 0.00 | 38 | 1017.2 |
| 20260503181622 | 69 | 6 | 1.7 | 1.7 | 0.00 | 0.00 | 0.00 | 40 | 1017.3 |
| 20260503181119 | 69 | 18 | 1.7 | 1.7 | 0.00 | 0.00 | 0.00 | 43 | 1017.6 |
| 20260503180616 | 68 | 12 | 1.7 | 2.6 | 0.00 | 0.00 | 0.00 | 40 | 1017.5 |
| 20260503180114 | 68 | 58 | 1.7 | 3.5 | 0.00 | 0.00 | 0.00 | 38 | 1017.6 |
| 20260503175611 | 68 | 24 | 1.7 | 2.6 | 0.00 | 0.00 | 0.00 | 42 | 1017.4 |
| 20260503175108 | 67 | 65 | 0.9 | 5.2 | 0.00 | 0.00 | 0.00 | 40 | 1017.5 |
| 20260503174605 | 67 | 54 | 1.7 | 3.5 | 0.00 | 0.00 | 0.00 | 42 | 1017.6 |
| 20260503174101 | 67 | 41 | 0.9 | 3.5 | 0.00 | 0.00 | 0.00 | 42 | 1017.6 |
| 20260503173556 | 67 | 281 | 0.0 | 3.5 | 0.00 | 0.00 | 0.00 | 42 | 1017.7 |
| 20260503173053 | 67 | 98 | 3.5 | 4.3 | 0.00 | 0.00 | 0.00 | 39 | 1017.8 |
| 20260503172550 | 66 | 172 | 0.9 | 3.5 | 0.00 | 0.00 | 0.00 | 44 | 1018.1 |
| 20260503172048 | 66 | 69 | 0.0 | 2.6 | 0.00 | 0.00 | 0.00 | 43 | 1017.9 |
| 20260503171544 | 67 | 12 | 2.6 | 4.3 | 0.00 | 0.00 | 0.00 | 39 | 1017.9 |
| 20260503171041 | 67 | 148 | 3.5 | 3.5 | 0.00 | 0.00 | 0.00 | 40 | 1017.9 |
| 20260503170537 | 66 | 100 | 1.7 | 2.6 | 0.00 | 0.00 | 0.00 | 44 | 1018.1 |
| 20260503150930 | 62 | 52 | 2.6 | 3.5 | 0.00 | 0.00 | 0.00 | 45 | 1019.2 |
| 20260503150427 | 62 | 66 | 2.6 | 5.2 | 0.00 | 0.00 | 0.00 | 44 | 1019.2 |
| 20260503131320 | 55 | 84 | 2.6 | 4.3 | 0.02 | 0.00 | 0.00 | 60 | 1018.5 |
| 20260503130817 | 55 | 60 | 0.0 | 2.6 | 0.00 | 0.00 | 0.00 | 62 | 1018.6 |
| 20260503130315 | 54 | 79 | 1.7 | 2.6 | 0.00 | 0.00 | 0.00 | 64 | 1018.6 |
| 20260503110708 | 42 | 100 | 1.7 | 1.7 | 0.00 | 0.00 | 0.00 | 98 | 1017.5 |
| 20260503110206 | 42 | 92 | 0.9 | 1.7 | 0.00 | 0.00 | 0.00 | 98 | 1017.3 |
| 20260503100132 | 43 | 84 | 1.7 | 2.6 | 0.00 | 0.00 | 0.00 | 98 | 1016.4 |
| 20260503081521 | 46 | 116 | 0.0 | 1.7 | 0.00 | 0.00 | 0.00 | 97 | 1015.3 |
| 20260503081019 | 46 | 102 | 0.9 | 1.7 | 0.00 | 0.00 | 0.00 | 97 | 1015.4 |
| 20260503080515 | 46 | 63 | 1.7 | 2.6 | 0.00 | 0.00 | 0.00 | 97 | 1015.3 |
| 20260503072448 | 46 | 89 | 1.7 | 1.7 | 0.00 | 0.00 | 0.00 | 97 | 1014.9 |
| 20260503071945 | 47 | 97 | 1.7 | 2.6 | 0.00 | 0.00 | 0.00 | 97 | 1014.9 |
| 20260503071442 | 47 | 86 | 1.7 | 1.7 | 0.00 | 0.00 | 0.00 | 97 | 1014.8 |
| 20260503070938 | 47 | 101 | 1.7 | 2.6 | 0.00 | 0.00 | 0.00 | 97 | 1014.8 |
| 20260503070435 | 47 | 108 | 0.0 | 1.7 | 0.00 | 0.00 | 0.00 | 97 | 1014.7 |
| 20260503054849 | 50 | 84 | 1.7 | 1.7 | 0.00 | 0.00 | 0.00 | 97 | 1014.2 |
| 20260503054345 | 50 | 79 | 0.0 | 1.7 | 0.00 | 0.00 | 0.00 | 97 | 1014.5 |
| 20260503053843 | 50 | 86 | 2.6 | 2.6 | 0.00 | 0.00 | 0.00 | 96 | 1014.2 |
| 20260503053341 | 50 | 67 | 1.7 | 2.6 | 0.00 | 0.00 | 0.00 | 96 | 1014.2 |
| 20260503052837 | 50 | 97 | 1.7 | 2.6 | 0.00 | 0.00 | 0.00 | 96 | 1014.2 |
| 20260503052334 | 50 | 114 | 0.0 | 1.7 | 0.00 | 0.00 | 0.00 | 96 | 1014.1 |
| 20260503051830 | 50 | 97 | 0.9 | 1.7 | 0.00 | 0.00 | 0.00 | 96 | 1014.4 |
| 20260503051327 | 51 | 53 | 0.9 | 1.7 | 0.00 | 0.00 | 0.00 | 97 | 1014.2 |
| 20260503050823 | 51 | 74 | 0.9 | 1.7 | 0.00 | 0.00 | 0.00 | 97 | 1014.4 |
| 20260503050320 | 51 | 98 | 0.9 | 1.7 | 0.00 | 0.00 | 0.00 | 97 | 1014.4 |
| 20260503045818 | 51 | 73 | 0.9 | 1.7 | 0.00 | 0.00 | 0.00 | 97 | 1014.2 |
| 20260503045315 | 51 | 64 | 1.7 | 1.7 | 0.00 | 0.00 | 0.00 | 97 | 1014.2 |
| 20260503044811 | 51 | 67 | 0.9 | 1.7 | 0.00 | 0.00 | 0.00 | 97 | 1014.3 |
| 20260503044308 | 51 | 57 | 1.7 | 2.6 | 0.00 | 0.00 | 0.00 | 97 | 1014.2 |
| 20260503043806 | 51 | 75 | 1.7 | 2.6 | 0.00 | 0.00 | 0.00 | 97 | 1014.2 |
| 20260503043302 | 51 | 79 | 0.0 | 1.7 | 0.00 | 0.00 | 0.00 | 97 | 1014.2 |
| 20260503042758 | 51 | 95 | 0.9 | 1.7 | 0.00 | 0.00 | 0.00 | 97 | 1014.2 |
| 20260503042255 | 51 | 73 | 1.7 | 1.7 | 0.00 | 0.00 | 0.00 | 97 | 1014.2 |
| 20260503041751 | 51 | 77 | 0.9 | 1.7 | 0.00 | 0.00 | 0.00 | 97 | 1014.3 |
| 20260503041249 | 51 | 112 | 1.7 | 1.7 | 0.00 | 0.00 | 0.00 | 97 | 1014.3 |
| 20260503040746 | 51 | 110 | 0.9 | 1.7 | 0.00 | 0.00 | 0.00 | 97 | 1014.2 |
| 20260503040244 | 51 | 56 | 0.0 | 1.7 | 0.00 | 0.00 | 0.00 | 97 | 1014.3 |
| 20260503035740 | 51 | 51 | 0.9 | 1.7 | 0.00 | 0.49 | 0.49 | 97 | 1014.3 |
| 20260503035238 | 51 | 71 | 0.9 | 1.7 | 0.00 | 0.49 | 0.49 | 97 | 1014.0 |
| 20260503034735 | 51 | 102 | 0.9 | 2.6 | 0.00 | 0.49 | 0.49 | 97 | 1014.1 |
| 20260503034232 | 51 | 83 | 1.7 | 2.6 | 0.00 | 0.49 | 0.49 | 97 | 1014.1 |
| 20260503033729 | 51 | 75 | 0.0 | 1.7 | 0.00 | 0.49 | 0.49 | 97 | 1014.2 |
| 20260503033227 | 51 | 84 | 0.9 | 1.7 | 0.00 | 0.49 | 0.49 | 97 | 1013.9 |
| 20260503032725 | 51 | 92 | 0.9 | 1.7 | 0.00 | 0.49 | 0.49 | 97 | 1014.0 |
| 20260503032223 | 51 | 75 | 0.9 | 1.7 | 0.00 | 0.49 | 0.49 | 97 | 1014.0 |
| 20260503031720 | 50 | 71 | 0.9 | 1.7 | 0.00 | 0.49 | 0.49 | 97 | 1014.0 |
| 20260503031218 | 51 | 62 | 1.7 | 2.6 | 0.00 | 0.49 | 0.49 | 96 | 1013.9 |
| 20260503030714 | 51 | 49 | 1.7 | 2.6 | 0.00 | 0.49 | 0.49 | 97 | 1014.0 |
| 20260503030210 | 51 | 74 | 1.7 | 2.6 | 0.00 | 0.49 | 0.49 | 96 | 1013.7 |
| 20260503025708 | 51 | 53 | 1.7 | 2.6 | 0.00 | 0.49 | 0.49 | 96 | 1013.6 |
| 20260503025205 | 51 | 48 | 1.7 | 2.6 | 0.00 | 0.49 | 0.49 | 96 | 1013.5 |
| 20260503024701 | 51 | 67 | 2.6 | 2.6 | 0.00 | 0.49 | 0.49 | 96 | 1013.4 |
| 20260503024159 | 51 | 87 | 1.7 | 2.6 | 0.00 | 0.49 | 0.49 | 96 | 1013.3 |
| 20260503023656 | 51 | 94 | 0.9 | 1.7 | 0.00 | 0.49 | 0.49 | 96 | 1013.1 |
| 20260503023152 | 51 | 122 | 1.7 | 1.7 | 0.00 | 0.49 | 0.49 | 96 | 1013.0 |
| 20260503022649 | 51 | 100 | 0.9 | 1.7 | 0.00 | 0.49 | 0.49 | 96 | 1013.1 |
| 20260503022148 | 51 | 75 | 1.7 | 2.6 | 0.00 | 0.49 | 0.49 | 96 | 1013.0 |
| 20260503021645 | 51 | 84 | 1.7 | 1.7 | 0.00 | 0.49 | 0.49 | 96 | 1013.0 |
| 20260503021142 | 51 | 58 | 1.7 | 2.6 | 0.00 | 0.49 | 0.49 | 96 | 1012.9 |
| 20260503020639 | 51 | 108 | 1.7 | 2.6 | 0.00 | 0.49 | 0.49 | 96 | 1012.6 |
| 20260503020137 | 51 | 143 | 1.7 | 1.7 | 0.00 | 0.49 | 0.49 | 96 | 1012.8 |
| 20260503015633 | 51 | 82 | 0.0 | 1.7 | 0.00 | 0.49 | 0.49 | 96 | 1012.7 |
| 20260503015130 | 51 | 72 | 1.7 | 2.6 | 0.00 | 0.49 | 0.49 | 96 | 1012.6 |
| 20260503014626 | 51 | 69 | 1.7 | 2.6 | 0.00 | 0.49 | 0.49 | 95 | 1012.5 |
| 20260503014124 | 51 | 79 | 1.7 | 2.6 | 0.00 | 0.49 | 0.49 | 95 | 1012.4 |
| 20260503013621 | 51 | 75 | 1.7 | 2.6 | 0.00 | 0.49 | 0.49 | 95 | 1012.1 |
| 20260503013119 | 51 | 98 | 0.9 | 1.7 | 0.00 | 0.49 | 0.49 | 95 | 1012.3 |
| 20260503012616 | 51 | 82 | 1.7 | 2.6 | 0.00 | 0.49 | 0.49 | 95 | 1012.2 |
| 20260503012113 | 51 | 92 | 1.7 | 2.6 | 0.00 | 0.49 | 0.49 | 95 | 1012.1 |
| 20260503011609 | 51 | 85 | 1.7 | 2.6 | 0.00 | 0.49 | 0.49 | 94 | 1012.0 |
| 20260503011106 | 51 | 78 | 2.6 | 2.6 | 0.00 | 0.49 | 0.49 | 94 | 1011.7 |
| 20260503010602 | 51 | 80 | 0.9 | 1.7 | 0.00 | 0.49 | 0.49 | 93 | 1011.9 |
| 20260503010100 | 51 | 92 | 0.9 | 1.7 | 0.00 | 0.49 | 0.49 | 93 | 1011.8 |
| 20260503005557 | 52 | 127 | 0.0 | 1.7 | 0.00 | 0.49 | 0.49 | 93 | 1012.0 |
| 20260503005054 | 52 | 108 | 0.0 | 1.7 | 0.00 | 0.49 | 0.49 | 92 | 1012.1 |
| 20260503004550 | 52 | 89 | 1.7 | 2.6 | 0.00 | 0.49 | 0.49 | 92 | 1011.7 |
| 20260503004049 | 52 | 84 | 1.7 | 2.6 | 0.00 | 0.49 | 0.49 | 91 | 1011.6 |
| 20260503003545 | 53 | 84 | 0.9 | 1.7 | 0.00 | 0.49 | 0.49 | 91 | 1011.6 |
| 20260503003042 | 53 | 76 | 1.7 | 2.6 | 0.00 | 0.49 | 0.49 | 90 | 1011.8 |
| 20260503002539 | 53 | 97 | 1.7 | 2.6 | 0.00 | 0.49 | 0.49 | 90 | 1011.6 |
| 20260503002036 | 53 | 84 | 0.9 | 2.6 | 0.00 | 0.49 | 0.49 | 89 | 1011.5 |
| 20260503001532 | 54 | 94 | 1.7 | 2.6 | 0.00 | 0.49 | 0.49 | 88 | 1011.4 |
| 20260503001030 | 54 | 88 | 1.7 | 1.7 | 0.00 | 0.49 | 0.49 | 86 | 1011.4 |
| 20260503000527 | 55 | 74 | 1.7 | 1.7 | 0.00 | 0.49 | 0.49 | 85 | 1011.2 |
| 20260503000024 | 55 | 86 | 0.9 | 1.7 | 0.00 | 0.49 | 0.49 | 84 | 1011.0 |
| 20260502235520 | 56 | 115 | 0.9 | 1.7 | 0.00 | 0.49 | 0.49 | 83 | 1011.1 |
| 20260502235018 | 56 | 91 | 1.7 | 2.6 | 0.00 | 0.49 | 0.49 | 83 | 1011.0 |
| 20260502234514 | 57 | 63 | 0.0 | 1.7 | 0.00 | 0.49 | 0.49 | 82 | 1010.9 |
| 20260502234013 | 57 | 126 | 0.9 | 1.7 | 0.00 | 0.49 | 0.49 | 78 | 1010.9 |
| 20260502233512 | 57 | 114 | 0.0 | 2.6 | 0.00 | 0.49 | 0.49 | 78 | 1010.9 |
| 20260502233010 | 58 | 142 | 0.0 | 1.7 | 0.00 | 0.49 | 0.49 | 80 | 1010.8 |
| 20260502232506 | 58 | 121 | 0.9 | 1.7 | 0.00 | 0.49 | 0.49 | 79 | 1010.8 |
| 20260502232002 | 58 | 80 | 0.9 | 1.7 | 0.00 | 0.49 | 0.49 | 78 | 1010.9 |
| 20260502231500 | 58 | 122 | 0.9 | 1.7 | 0.00 | 0.49 | 0.49 | 77 | 1010.8 |
| 20260502230958 | 58 | 102 | 0.9 | 1.7 | 0.00 | 0.49 | 0.49 | 76 | 1010.8 |
| 20260502230455 | 58 | 136 | 0.9 | 1.7 | 0.00 | 0.49 | 0.49 | 78 | 1010.8 |
| 20260502225953 | 58 | 115 | 0.0 | 1.7 | 0.00 | 0.49 | 0.49 | 77 | 1010.7 |
| 20260502225450 | 58 | 63 | 0.0 | 1.7 | 0.00 | 0.49 | 0.49 | 76 | 1010.7 |
| 20260502224947 | 58 | 123 | 0.9 | 1.7 | 0.00 | 0.49 | 0.49 | 77 | 1010.8 |
| 20260502224443 | 58 | 89 | 0.0 | 1.7 | 0.00 | 0.49 | 0.49 | 77 | 1010.9 |
| 20260502223940 | 58 | 112 | 0.9 | 1.7 | 0.00 | 0.49 | 0.49 | 76 | 1010.7 |
| 20260502223438 | 58 | 121 | 0.0 | 0.9 | 0.00 | 0.49 | 0.49 | 76 | 1010.5 |
| 20260502222936 | 58 | 64 | 0.0 | 1.7 | 0.00 | 0.49 | 0.49 | 76 | 1010.6 |
| 20260502222433 | 58 | 121 | 0.9 | 1.7 | 0.00 | 0.49 | 0.49 | 76 | 1010.5 |
| 20260502221928 | 58 | 135 | 0.0 | 1.7 | 0.00 | 0.49 | 0.49 | 77 | 1010.6 |
| 20260502221425 | 58 | 82 | 2.6 | 3.5 | 0.00 | 0.49 | 0.49 | 74 | 1010.5 |
| 20260502220922 | 58 | 106 | 0.0 | 1.7 | 0.00 | 0.49 | 0.49 | 74 | 1010.6 |
| 20260502220417 | 58 | 175 | 1.7 | 1.7 | 0.00 | 0.49 | 0.49 | 74 | 1010.6 |
| 20260502215914 | 58 | 91 | 0.9 | 2.6 | 0.00 | 0.49 | 0.49 | 76 | 1010.5 |
| 20260502215412 | 58 | 50 | 2.6 | 2.6 | 0.00 | 0.49 | 0.49 | 75 | 1010.6 |
| 20260502214908 | 58 | 105 | 0.0 | 2.6 | 0.00 | 0.49 | 0.49 | 74 | 1010.5 |
| 20260502214405 | 58 | 119 | 0.0 | 0.9 | 0.00 | 0.49 | 0.49 | 74 | 1010.4 |
| 20260502213902 | 58 | 112 | 2.6 | 3.5 | 0.00 | 0.49 | 0.49 | 73 | 1010.4 |
| 20260502213359 | 58 | 118 | 0.9 | 1.7 | 0.00 | 0.49 | 0.49 | 74 | 1010.3 |
| 20260502212858 | 58 | 121 | 2.6 | 4.3 | 0.00 | 0.49 | 0.49 | 73 | 1010.2 |
| 20260502212356 | 58 | 98 | 2.6 | 4.3 | 0.00 | 0.49 | 0.49 | 73 | 1010.5 |
| 20260502211853 | 58 | 97 | 2.6 | 6.1 | 0.00 | 0.49 | 0.49 | 74 | 1010.3 |
| 20260502211349 | 58 | 101 | 0.0 | 3.5 | 0.00 | 0.49 | 0.49 | 74 | 1010.2 |
| 20260502210846 | 58 | 141 | 2.6 | 2.6 | 0.00 | 0.49 | 0.49 | 74 | 1010.3 |
| 20260502210343 | 58 | 214 | 1.7 | 4.3 | 0.00 | 0.49 | 0.49 | 72 | 1010.3 |
| 20260502205841 | 58 | 203 | 0.0 | 2.6 | 0.00 | 0.49 | 0.49 | 75 | 1010.4 |
| 20260502205336 | 58 | 169 | 1.7 | 3.5 | 0.00 | 0.49 | 0.49 | 73 | 1010.6 |
| 20260502204834 | 58 | 220 | 0.9 | 4.3 | 0.00 | 0.49 | 0.49 | 71 | 1010.5 |
| 20260502204331 | 58 | 54 | 4.3 | 4.3 | 0.00 | 0.49 | 0.49 | 74 | 1010.5 |
| 20260502203828 | 57 | 94 | 2.6 | 2.6 | 0.00 | 0.49 | 0.49 | 74 | 1010.5 |
| 20260502203326 | 57 | 158 | 1.7 | 1.7 | 0.00 | 0.49 | 0.49 | 76 | 1010.4 |
| 20260502202826 | 57 | 60 | 0.9 | 2.6 | 0.00 | 0.49 | 0.49 | 76 | 1010.4 |
| 20260502202324 | 57 | 169 | 1.7 | 3.5 | 0.00 | 0.49 | 0.49 | 76 | 1010.5 |
| 20260502201822 | 57 | 116 | 1.7 | 2.6 | 0.00 | 0.49 | 0.49 | 78 | 1010.3 |
| 20260502201318 | 56 | 158 | 1.7 | 2.6 | 0.00 | 0.49 | 0.49 | 79 | 1010.5 |
| 20260502200814 | 56 | 148 | 3.5 | 4.3 | 0.00 | 0.49 | 0.49 | 77 | 1010.7 |
| 20260502200310 | 56 | 124 | 2.6 | 4.3 | 0.00 | 0.49 | 0.49 | 76 | 1010.9 |
| 20260502195808 | 57 | 215 | 0.9 | 3.5 | 0.00 | 0.49 | 0.49 | 76 | 1010.7 |
| 20260502195305 | 57 | 68 | 3.5 | 4.3 | 0.00 | 0.49 | 0.49 | 76 | 1011.2 |
| 20260502194801 | 57 | 131 | 0.0 | 2.6 | 0.00 | 0.49 | 0.49 | 80 | 1011.0 |
| 20260502194258 | 57 | 80 | 2.6 | 2.6 | 0.00 | 0.49 | 0.49 | 83 | 1010.9 |
| 20260502193754 | 56 | 235 | 0.0 | 2.6 | 0.00 | 0.49 | 0.49 | 80 | 1011.0 |
| 20260502193252 | 56 | 116 | 1.7 | 3.5 | 0.00 | 0.49 | 0.49 | 80 | 1010.9 |
| 20260502192751 | 56 | 141 | 3.5 | 6.1 | 0.00 | 0.49 | 0.49 | 79 | 1010.9 |
| 20260502192249 | 56 | 97 | 1.7 | 4.3 | 0.00 | 0.49 | 0.49 | 80 | 1010.8 |
| 20260502191746 | 56 | 155 | 1.7 | 4.3 | 0.00 | 0.49 | 0.49 | 78 | 1011.1 |
| 20260502191244 | 56 | 105 | 2.6 | 3.5 | 0.00 | 0.49 | 0.49 | 80 | 1011.3 |
| 20260502190741 | 56 | 84 | 0.9 | 3.5 | 0.00 | 0.49 | 0.49 | 81 | 1011.1 |
| 20260502190238 | 56 | 66 | 0.0 | 3.5 | 0.00 | 0.49 | 0.49 | 83 | 1011.1 |
| 20260502185733 | 56 | 130 | 1.7 | 4.3 | 0.00 | 0.49 | 0.49 | 81 | 1011.0 |